Time;durP1;ratioP1;P1;durP2;ratioP2;P2;SDS_P1;SDS_P2;PMS_P1;PMS_P2;Temp;Humidity;BMP_temperature;BMP_pressure;BME280_temperature;BME280_humidity;BME280_pressure;Samples;Min_cycle;Max_cycle;Signal;HPM_P1;HPM_P2
2022/07/17 00:01:55;;;;;;;6.57;4.73;;;17.90;96.80;;;;;;4982645;28;20681;-65
2022/07/17 00:04:21;;;;;;;5.23;4.70;;;17.70;98.30;;;;;;4984273;28;20250;-66
2022/07/17 00:06:46;;;;;;;5.20;4.70;;;17.70;98.00;;;;;;4978213;28;20200;-66
2022/07/17 00:09:12;;;;;;;6.37;5.30;;;17.60;98.10;;;;;;4983679;28;20176;-66
2022/07/17 00:11:37;;;;;;;5.67;5.17;;;17.70;97.30;;;;;;4987567;28;20238;-66
2022/07/17 00:14:03;;;;;;;8.23;6.30;;;17.80;96.90;;;;;;4983098;28;20211;-68
2022/07/17 00:16:28;;;;;;;7.20;5.13;;;17.70;97.50;;;;;;4974637;28;20195;-67
2022/07/17 00:18:54;;;;;;;7.17;5.00;;;17.70;98.50;;;;;;4973652;28;20562;-66
2022/07/17 00:21:19;;;;;;;5.23;4.83;;;17.60;99.90;;;;;;4974199;28;20216;-66
2022/07/17 00:23:45;;;;;;;5.07;4.70;;;17.50;99.90;;;;;;4973551;28;20195;-67
2022/07/17 00:26:11;;;;;;;6.00;5.50;;;17.30;99.90;;;;;;4975321;28;20204;-65
2022/07/17 00:28:36;;;;;;;6.17;5.70;;;17.10;99.90;;;;;;4971587;28;20184;-65
2022/07/17 00:31:02;;;;;;;5.57;5.17;;;17.20;99.90;;;;;;4975416;28;20556;-66
2022/07/17 00:33:27;;;;;;;6.23;5.63;;;17.10;99.90;;;;;;4984205;28;20184;-65
2022/07/17 00:35:53;;;;;;;6.50;5.27;;;17.10;99.90;;;;;;4992221;28;20180;-65
2022/07/17 00:38:18;;;;;;;5.63;5.13;;;17.10;99.90;;;;;;4984302;28;20195;-68
2022/07/17 00:40:44;;;;;;;5.23;4.83;;;17.10;99.90;;;;;;4982401;28;20222;-65
2022/07/17 00:43:09;;;;;;;5.70;5.10;;;17.10;99.90;;;;;;4986006;28;20518;-65
2022/07/17 00:45:35;;;;;;;5.67;5.00;;;17.00;99.90;;;;;;4986180;28;20287;-67
2022/07/17 00:48:03;;;;;;;5.57;5.17;;;16.90;99.90;;;;;;4986300;28;20213;-65
2022/07/17 00:50:38;;;;;;;6.13;5.63;;;16.80;99.90;;;;;;4982627;28;20238;-65
2022/07/17 00:53:04;;;;;;;7.93;5.40;;;16.90;99.90;;;;;;4973805;28;20439;-68
2022/07/17 00:55:31;;;;;;;5.43;5.03;;;16.70;99.90;;;;;;4972795;28;20498;-66
2022/07/17 00:58:00;;;;;;;8.20;5.20;;;16.90;99.90;;;;;;4972941;28;20519;-66
2022/07/17 01:00:26;;;;;;;5.57;5.17;;;16.90;99.90;;;;;;4973590;28;20443;-65
2022/07/17 01:02:52;;;;;;;5.03;4.60;;;16.90;99.90;;;;;;4973967;28;20455;-66
2022/07/17 01:05:19;;;;;;;6.17;5.67;;;16.90;99.90;;;;;;4975348;28;20184;-65
2022/07/17 01:07:45;;;;;;;6.03;5.43;;;16.90;99.90;;;;;;4974814;28;20462;-66
2022/07/17 01:10:12;;;;;;;5.23;4.73;;;16.80;99.90;;;;;;4971908;28;20435;-68
2022/07/17 01:12:38;;;;;;;5.73;5.30;;;16.80;99.90;;;;;;4973063;28;20209;-66
2022/07/17 01:15:04;;;;;;;5.67;5.00;;;16.80;99.90;;;;;;4974354;28;20451;-67
2022/07/17 01:17:30;;;;;;;6.20;5.47;;;16.80;99.90;;;;;;4973431;28;20526;-66
2022/07/17 01:19:56;;;;;;;5.37;4.90;;;17.00;99.90;;;;;;4971360;28;20981;-66
2022/07/17 01:22:22;;;;;;;5.63;5.13;;;16.70;99.90;;;;;;4974164;28;20577;-66
2022/07/17 01:24:47;;;;;;;6.47;6.00;;;16.60;99.90;;;;;;4981328;28;20183;-65
2022/07/17 01:27:14;;;;;;;5.67;5.30;;;16.50;99.90;;;;;;4974451;28;21013;-65
2022/07/17 01:29:40;;;;;;;5.60;5.07;;;16.50;99.90;;;;;;4972759;28;20218;-68
2022/07/17 01:32:05;;;;;;;5.80;5.40;;;16.40;99.90;;;;;;4973130;28;20490;-65
2022/07/17 01:34:31;;;;;;;8.17;5.87;;;16.30;99.90;;;;;;4974160;28;20192;-66
2022/07/17 01:36:58;;;;;;;9.00;6.73;;;16.30;99.90;;;;;;4972549;28;20413;-67
2022/07/17 01:42:08;;;;;;;7.33;6.73;;;16.30;99.90;;;;;;4973242;28;20545;-67
2022/07/17 01:44:33;;;;;;;7.50;6.80;;;16.30;99.90;;;;;;4971727;28;20443;-65
2022/07/17 01:46:59;;;;;;;5.43;4.93;;;16.30;99.90;;;;;;4971983;28;20490;-65
2022/07/17 01:49:25;;;;;;;5.80;5.40;;;16.20;99.90;;;;;;4971965;28;20176;-67
2022/07/17 01:51:50;;;;;;;5.73;5.23;;;16.20;99.90;;;;;;4972581;28;20346;-69
2022/07/17 01:54:16;;;;;;;5.77;5.40;;;16.20;99.90;;;;;;4973392;28;20275;-65
2022/07/17 01:56:41;;;;;;;7.70;7.00;;;16.10;99.90;;;;;;4973518;28;20646;-65
2022/07/17 01:59:08;;;;;;;7.20;5.97;;;16.00;99.90;;;;;;4972672;28;20180;-65
2022/07/17 02:01:33;;;;;;;6.30;5.70;;;15.80;99.90;;;;;;4973092;28;20231;-66
2022/07/17 02:03:59;;;;;;;6.83;6.20;;;15.70;99.90;;;;;;4972268;28;20443;-65
2022/07/17 02:06:24;;;;;;;6.30;5.80;;;15.70;99.90;;;;;;4971895;28;20199;-64
2022/07/17 02:08:50;;;;;;;6.20;5.70;;;15.70;99.90;;;;;;4979395;28;20699;-65
2022/07/17 02:11:17;;;;;;;5.97;5.57;;;15.70;99.90;;;;;;4990382;28;20195;-67
2022/07/17 02:13:42;;;;;;;8.93;6.47;;;15.80;99.90;;;;;;4977194;28;20254;-64
2022/07/17 02:16:08;;;;;;;6.60;5.77;;;15.80;99.90;;;;;;4973588;28;20539;-64
2022/07/17 02:18:34;;;;;;;6.83;6.23;;;15.80;99.90;;;;;;4973604;28;20184;-65
2022/07/17 02:20:59;;;;;;;5.70;5.20;;;15.80;99.90;;;;;;4971091;28;20208;-65
2022/07/17 02:23:25;;;;;;;7.37;6.20;;;15.60;99.90;;;;;;4975115;28;20179;-67
2022/07/17 02:25:51;;;;;;;7.30;6.10;;;15.50;99.90;;;;;;4972191;28;20236;-67
2022/07/17 02:28:16;;;;;;;6.20;5.80;;;15.40;99.90;;;;;;4971919;28;20669;-65
2022/07/17 02:30:42;;;;;;;7.23;6.63;;;15.30;99.90;;;;;;4972275;28;20713;-68
2022/07/17 02:33:08;;;;;;;6.70;6.10;;;15.30;99.90;;;;;;4971455;28;20200;-66
2022/07/17 02:35:34;;;;;;;6.43;6.03;;;15.30;99.90;;;;;;4970890;28;20949;-66
2022/07/17 02:38:00;;;;;;;6.00;5.60;;;15.30;99.90;;;;;;4972351;28;20650;-67
2022/07/17 02:40:25;;;;;;;7.20;6.60;;;15.30;99.90;;;;;;4971693;28;20471;-66
2022/07/17 02:42:51;;;;;;;5.57;5.20;;;15.30;99.90;;;;;;4977232;28;20896;-67
2022/07/17 02:45:21;;;;;;;6.17;5.77;;;15.40;99.90;;;;;;4970703;28;20181;-66
2022/07/17 02:47:47;;;;;;;6.77;6.17;;;15.40;99.90;;;;;;4971596;28;20180;-65
2022/07/17 02:50:12;;;;;;;5.87;5.47;;;15.20;99.90;;;;;;4966315;28;20774;-65
2022/07/17 02:52:38;;;;;;;6.00;5.40;;;15.30;99.90;;;;;;4972111;28;20320;-67
2022/07/17 02:55:04;;;;;;;7.30;6.70;;;15.30;99.90;;;;;;4953895;28;20534;-66
2022/07/17 02:57:30;;;;;;;6.13;5.73;;;15.30;99.90;;;;;;4970686;28;20243;-68
2022/07/17 02:59:55;;;;;;;7.03;5.87;;;15.30;99.90;;;;;;4971216;28;20530;-66
2022/07/17 03:02:21;;;;;;;6.33;5.73;;;15.10;99.90;;;;;;4972469;28;20206;-67
2022/07/17 03:04:47;;;;;;;6.50;5.97;;;15.10;99.90;;;;;;4971649;28;20180;-64
2022/07/17 03:07:12;;;;;;;7.00;6.30;;;15.10;99.90;;;;;;4971499;28;20340;-67
2022/07/17 03:09:38;;;;;;;7.30;6.13;;;15.00;99.90;;;;;;4969841;28;20658;-66
2022/07/17 03:12:04;;;;;;;6.67;6.10;;;15.00;99.90;;;;;;4971959;28;20208;-67
2022/07/17 03:14:29;;;;;;;5.77;5.37;;;15.00;99.90;;;;;;4971861;28;20184;-66
2022/07/17 03:16:55;;;;;;;6.00;5.50;;;15.00;99.90;;;;;;4971495;28;20187;-66
2022/07/17 03:19:20;;;;;;;6.30;5.80;;;15.00;99.90;;;;;;4969783;28;20218;-68
2022/07/17 03:21:46;;;;;;;6.87;6.20;;;15.00;99.90;;;;;;4971680;28;20196;-66
2022/07/17 03:24:11;;;;;;;7.13;6.43;;;14.90;99.90;;;;;;4954728;28;20199;-65
2022/07/17 03:26:37;;;;;;;7.17;6.43;;;14.80;99.90;;;;;;4971796;28;20274;-66
2022/07/17 03:29:02;;;;;;;6.57;6.17;;;14.80;99.90;;;;;;4970868;28;20643;-66
2022/07/17 03:31:28;;;;;;;8.00;7.23;;;14.80;99.90;;;;;;4970681;28;20239;-65
2022/07/17 03:33:53;;;;;;;6.70;6.10;;;14.70;99.90;;;;;;4970856;28;20180;-66
2022/07/17 03:36:20;;;;;;;7.00;6.30;;;14.70;99.90;;;;;;4972068;28;20184;-65
2022/07/17 03:38:45;;;;;;;6.40;5.80;;;14.70;99.90;;;;;;4970239;28;20549;-66
2022/07/17 03:41:11;;;;;;;7.00;6.37;;;14.70;99.90;;;;;;4971995;28;20463;-65
2022/07/17 03:43:37;;;;;;;6.40;6.00;;;14.80;99.90;;;;;;4953681;28;20188;-65
2022/07/17 03:46:03;;;;;;;5.73;5.07;;;14.80;99.90;;;;;;4956761;28;20478;-66
2022/07/17 03:48:29;;;;;;;7.10;6.40;;;14.90;99.90;;;;;;4983253;28;20684;-65
2022/07/17 03:50:54;;;;;;;6.10;5.60;;;14.90;99.90;;;;;;4976045;28;20270;-65
2022/07/17 03:53:20;;;;;;;5.87;5.47;;;14.90;99.90;;;;;;4971806;28;20435;-68
2022/07/17 03:55:45;;;;;;;6.93;6.33;;;14.90;99.90;;;;;;4971017;28;20590;-68
2022/07/17 03:58:11;;;;;;;6.50;6.00;;;14.90;99.90;;;;;;4970780;28;20180;-66
2022/07/17 04:00:36;;;;;;;7.30;6.70;;;14.90;99.90;;;;;;4971195;28;20230;-66
2022/07/17 04:03:02;;;;;;;6.10;5.57;;;15.00;99.90;;;;;;4971325;28;20180;-66
2022/07/17 04:05:27;;;;;;;6.63;6.03;;;15.00;99.90;;;;;;4976883;28;20661;-66
2022/07/17 04:07:53;;;;;;;6.83;6.20;;;15.10;99.90;;;;;;4975223;28;20222;-66
2022/07/17 04:10:18;;;;;;;6.83;6.00;;;15.10;99.90;;;;;;4970619;28;20206;-66
2022/07/17 04:12:44;;;;;;;7.50;6.90;;;15.10;99.90;;;;;;4971277;28;20615;-65
2022/07/17 04:15:11;;;;;;;7.50;6.93;;;15.10;99.90;;;;;;4971796;28;20183;-65
2022/07/17 04:17:36;;;;;;;8.57;7.17;;;15.10;99.90;;;;;;4970707;28;20188;-65
2022/07/17 04:20:03;;;;;;;6.73;6.33;;;15.20;99.90;;;;;;4970302;28;20874;-65
2022/07/17 04:22:29;;;;;;;6.63;6.23;;;15.20;99.90;;;;;;4971404;28;20212;-65
2022/07/17 04:24:54;;;;;;;8.17;7.47;;;15.30;99.90;;;;;;4969580;28;20600;-65
2022/07/17 04:27:20;;;;;;;7.53;5.57;;;15.40;99.90;;;;;;4954018;28;20626;-67
2022/07/17 04:29:45;;;;;;;7.03;6.43;;;15.50;99.90;;;;;;4969881;28;20971;-65
2022/07/17 04:32:11;;;;;;;7.67;6.50;;;15.50;99.90;;;;;;4973588;28;20208;-65
2022/07/17 04:34:36;;;;;;;6.57;6.17;;;15.70;99.90;;;;;;4974565;28;20185;-67
2022/07/17 04:37:03;;;;;;;6.70;5.90;;;15.80;99.90;;;;;;4977128;28;20189;-66
2022/07/17 04:39:29;;;;;;;8.10;7.50;;;15.90;99.90;;;;;;4976675;28;20191;-65
2022/07/17 04:41:55;;;;;;;6.10;5.70;;;15.90;99.90;;;;;;4973507;28;20510;-67
2022/07/17 04:44:21;;;;;;;6.77;5.80;;;16.00;99.90;;;;;;4974434;28;20467;-65
2022/07/17 04:46:47;;;;;;;7.20;6.60;;;16.10;99.90;;;;;;4973815;28;20200;-65
2022/07/17 04:49:12;;;;;;;7.03;6.47;;;16.20;99.90;;;;;;4972541;28;20264;-65
2022/07/17 04:51:38;;;;;;;7.20;6.60;;;16.20;99.90;;;;;;4974210;28;20215;-67
2022/07/17 04:54:03;;;;;;;6.93;6.30;;;16.30;99.90;;;;;;4972789;28;20260;-65
2022/07/17 04:56:29;;;;;;;8.00;7.13;;;16.50;99.90;;;;;;4974201;28;20180;-64
2022/07/17 04:58:54;;;;;;;6.30;5.90;;;16.60;99.90;;;;;;4971945;28;20192;-67
2022/07/17 05:01:20;;;;;;;7.90;7.30;;;16.80;99.90;;;;;;4973630;28;20208;-65
2022/07/17 05:03:45;;;;;;;6.87;6.37;;;17.00;99.90;;;;;;4980749;28;20708;-65
2022/07/17 05:06:11;;;;;;;6.97;6.37;;;17.30;99.90;;;;;;4992079;28;20796;-67
2022/07/17 05:08:37;;;;;;;5.90;5.50;;;17.40;99.90;;;;;;4978227;28;20184;-65
2022/07/17 05:11:03;;;;;;;7.20;6.57;;;17.50;99.90;;;;;;4988368;28;20204;-65
2022/07/17 05:13:28;;;;;;;6.17;5.40;;;17.70;99.90;;;;;;4983144;28;20522;-66
2022/07/17 05:15:54;;;;;;;6.93;6.33;;;17.70;99.90;;;;;;4981998;28;20176;-65
2022/07/17 05:18:19;;;;;;;6.80;6.30;;;17.90;99.90;;;;;;4990981;28;20637;-65
2022/07/17 05:20:45;;;;;;;7.07;6.37;;;18.00;99.90;;;;;;4985942;28;20179;-66
2022/07/17 05:23:10;;;;;;;6.40;5.70;;;18.10;99.90;;;;;;4984387;28;20198;-65
2022/07/17 05:25:36;;;;;;;5.97;5.47;;;18.30;99.90;;;;;;4985937;28;20677;-65
2022/07/17 05:28:02;;;;;;;6.17;5.57;;;18.60;99.90;;;;;;4983536;28;20701;-65
2022/07/17 05:30:28;;;;;;;8.43;6.50;;;18.60;99.90;;;;;;4990579;28;20661;-66
2022/07/17 05:32:53;;;;;;;10.03;5.90;;;18.70;99.90;;;;;;4984979;28;20214;-67
2022/07/17 05:35:19;;;;;;;6.90;6.30;;;18.80;99.90;;;;;;4982265;28;21059;-66
2022/07/17 05:37:45;;;;;;;7.77;7.17;;;19.00;99.90;;;;;;4982401;28;20672;-64
2022/07/17 05:40:11;;;;;;;7.20;6.70;;;19.00;99.90;;;;;;4981028;28;20179;-66
2022/07/17 05:42:36;;;;;;;7.20;6.50;;;19.20;99.90;;;;;;4986884;28;20286;-64
2022/07/17 05:45:02;;;;;;;7.30;6.70;;;19.30;99.90;;;;;;4978398;28;20180;-65
2022/07/17 05:47:28;;;;;;;7.47;6.53;;;19.40;99.90;;;;;;4982635;28;20204;-65
2022/07/17 05:49:53;;;;;;;7.73;7.00;;;19.50;99.90;;;;;;4976306;28;20435;-65
2022/07/17 05:52:19;;;;;;;7.57;6.87;;;19.40;99.90;;;;;;4965391;28;20215;-65
2022/07/17 05:54:44;;;;;;;7.37;6.87;;;19.50;99.90;;;;;;4980595;28;20180;-66
2022/07/17 05:57:10;;;;;;;7.00;6.27;;;19.70;99.90;;;;;;4979867;28;20210;-66
2022/07/17 05:59:35;;;;;;;7.40;6.70;;;19.80;99.90;;;;;;4984761;28;20180;-65
2022/07/17 06:02:01;;;;;;;10.23;6.43;;;20.00;99.90;;;;;;4982840;28;20254;-65
2022/07/17 06:04:26;;;;;;;9.17;7.17;;;20.20;99.90;;;;;;4981359;28;20199;-66
2022/07/17 06:06:52;;;;;;;7.80;7.17;;;20.40;99.90;;;;;;4974341;28;20349;-65
2022/07/17 06:09:18;;;;;;;7.20;6.60;;;20.90;99.90;;;;;;4984988;28;20187;-67
2022/07/17 06:11:43;;;;;;;13.07;8.63;;;20.40;99.90;;;;;;4982792;28;20250;-67
2022/07/17 06:14:09;;;;;;;7.17;6.67;;;20.50;99.90;;;;;;4983628;28;20180;-67
2022/07/17 06:16:34;;;;;;;7.20;6.70;;;20.60;99.90;;;;;;4980312;28;20266;-65
2022/07/17 06:19:00;;;;;;;7.00;6.50;;;20.60;99.70;;;;;;4975304;28;20191;-70
2022/07/17 06:21:25;;;;;;;8.47;7.67;;;20.60;99.40;;;;;;4982955;28;20203;-68
2022/07/17 06:23:51;;;;;;;7.73;7.10;;;20.70;99.10;;;;;;4973474;28;20180;-67
2022/07/17 06:26:16;;;;;;;8.13;7.30;;;20.90;98.60;;;;;;4976590;28;20195;-68
2022/07/17 06:28:42;;;;;;;8.03;7.23;;;21.10;98.00;;;;;;4981540;28;20191;-67
2022/07/17 06:31:07;;;;;;;6.60;6.00;;;21.30;97.00;;;;;;4979494;28;20204;-67
2022/07/17 06:33:33;;;;;;;7.60;6.50;;;21.50;96.90;;;;;;4973188;28;20267;-68
2022/07/17 06:35:58;;;;;;;5.70;5.30;;;21.60;96.00;;;;;;4982185;28;20180;-68
2022/07/17 06:38:24;;;;;;;7.97;7.30;;;21.80;95.60;;;;;;4988776;28;20202;-68
2022/07/17 06:40:50;;;;;;;6.53;6.00;;;22.00;95.30;;;;;;4981230;28;20265;-68
2022/07/17 06:43:15;;;;;;;7.30;6.70;;;22.20;94.70;;;;;;4972936;28;20176;-67
2022/07/17 06:45:41;;;;;;;7.70;6.20;;;22.20;94.20;;;;;;4980334;28;20672;-68
2022/07/17 06:48:06;;;;;;;8.67;6.10;;;22.20;94.10;;;;;;4974556;28;20188;-67
2022/07/17 06:50:32;;;;;;;6.53;6.00;;;22.30;94.10;;;;;;4972367;28;20176;-69
2022/07/17 06:52:58;;;;;;;6.33;5.80;;;22.40;93.70;;;;;;4970179;28;20176;-70
2022/07/17 06:55:23;;;;;;;8.83;8.13;;;22.60;93.60;;;;;;4973148;28;20265;-68
2022/07/17 06:57:49;;;;;;;6.90;6.43;;;22.90;92.40;;;;;;4975882;28;20560;-68
2022/07/17 07:00:15;;;;;;;6.10;5.50;;;22.90;91.90;;;;;;4970677;28;20686;-67
2022/07/17 07:02:40;;;;;;;5.93;5.43;;;23.10;91.60;;;;;;4972989;28;20235;-67
2022/07/17 07:05:06;;;;;;;5.10;4.70;;;23.40;90.80;;;;;;4976098;28;20188;-67
2022/07/17 07:07:31;;;;;;;5.60;5.20;;;23.60;90.00;;;;;;4976940;28;20303;-67
2022/07/17 07:09:57;;;;;;;7.73;5.30;;;23.80;88.40;;;;;;4972063;28;20180;-67
2022/07/17 07:12:22;;;;;;;5.47;5.07;;;23.90;86.70;;;;;;4972904;28;20240;-68
2022/07/17 07:14:48;;;;;;;5.73;5.33;;;23.90;85.60;;;;;;4977501;28;20267;-67
2022/07/17 07:17:13;;;;;;;6.03;5.40;;;24.00;85.00;;;;;;4975334;28;20179;-67
2022/07/17 07:19:39;;;;;;;4.50;4.10;;;24.20;84.40;;;;;;4978194;28;20184;-67
2022/07/17 07:22:05;;;;;;;4.87;4.57;;;24.40;83.50;;;;;;4974179;28;20206;-66
2022/07/17 07:24:30;;;;;;;5.57;4.93;;;24.60;81.50;;;;;;4977991;28;20173;-67
2022/07/17 07:26:56;;;;;;;5.50;5.00;;;24.80;80.50;;;;;;4972728;28;20195;-68
2022/07/17 07:29:21;;;;;;;5.60;5.20;;;24.90;80.90;;;;;;4983080;28;20179;-68
2022/07/17 07:31:47;;;;;;;5.93;5.43;;;25.00;79.70;;;;;;4968879;28;20199;-67
2022/07/17 07:34:13;;;;;;;7.23;4.93;;;25.00;79.30;;;;;;4981080;28;20210;-67
2022/07/17 07:36:38;;;;;;;5.80;5.30;;;25.10;79.80;;;;;;4982168;28;20443;-67
2022/07/17 07:39:04;;;;;;;6.17;5.07;;;25.40;79.30;;;;;;4980152;28;20184;-69
2022/07/17 07:41:30;;;;;;;5.10;4.70;;;25.50;77.20;;;;;;4982696;28;20227;-67
2022/07/17 07:43:55;;;;;;;5.30;4.90;;;25.70;76.80;;;;;;4981276;28;20192;-68
2022/07/17 07:46:21;;;;;;;5.73;5.33;;;25.80;76.70;;;;;;4979952;28;20239;-67
2022/07/17 07:48:46;;;;;;;4.70;4.40;;;26.00;75.00;;;;;;4981642;28;20660;-68
2022/07/17 07:51:12;;;;;;;6.03;5.43;;;26.00;74.20;;;;;;4984410;28;20220;-67
2022/07/17 07:53:38;;;;;;;6.17;4.43;;;26.10;73.00;;;;;;4980258;28;20656;-68
2022/07/17 07:56:03;;;;;;;4.60;4.30;;;26.00;72.10;;;;;;4981131;28;20186;-66
2022/07/17 07:58:29;;;;;;;4.77;4.40;;;26.10;71.60;;;;;;4974111;28;20204;-68
2022/07/17 08:00:54;;;;;;;5.60;5.20;;;26.30;70.20;;;;;;4986206;28;20207;-69
2022/07/17 08:03:20;;;;;;;5.30;4.90;;;26.30;71.20;;;;;;4969884;28;20187;-67
2022/07/17 08:05:46;;;;;;;5.73;5.33;;;26.30;71.80;;;;;;4981083;28;20179;-66
2022/07/17 08:08:11;;;;;;;4.53;4.23;;;26.60;70.50;;;;;;4981617;28;20184;-68
2022/07/17 08:10:37;;;;;;;4.90;4.50;;;26.80;68.40;;;;;;4985554;28;20585;-67
2022/07/17 08:13:02;;;;;;;5.00;4.50;;;26.90;67.20;;;;;;4983085;28;20698;-67
2022/07/17 08:15:28;;;;;;;6.50;5.90;;;26.80;67.20;;;;;;4986556;28;20188;-68
2022/07/17 08:17:54;;;;;;;4.60;4.20;;;26.70;67.20;;;;;;4980336;28;20184;-68
2022/07/17 08:20:21;;;;;;;4.93;4.20;;;26.90;66.20;;;;;;4985913;28;20188;-67
2022/07/17 08:22:48;;;;;;;5.97;5.47;;;27.20;66.30;;;;;;4980576;28;20263;-68
2022/07/17 08:25:14;;;;;;;5.33;5.03;;;27.60;64.80;;;;;;4982539;28;20804;-67
2022/07/17 08:27:42;;;;;;;4.90;4.50;;;27.90;64.40;;;;;;4982415;28;20467;-68
2022/07/17 08:30:09;;;;;;;4.80;4.50;;;27.90;62.90;;;;;;4972924;28;20443;-68
2022/07/17 08:32:36;;;;;;;4.90;4.50;;;27.90;62.60;;;;;;4973800;28;20462;-66
2022/07/17 08:35:02;;;;;;;4.30;4.00;;;28.10;62.40;;;;;;4970099;28;20511;-68
2022/07/17 08:37:28;;;;;;;4.17;3.87;;;28.30;62.20;;;;;;4975923;28;20950;-69
2022/07/17 08:39:54;;;;;;;4.60;4.23;;;28.60;60.50;;;;;;4972134;28;20443;-70
2022/07/17 08:42:20;;;;;;;4.47;4.10;;;28.60;59.80;;;;;;4973348;28;20597;-68
2022/07/17 08:44:45;;;;;;;5.23;4.50;;;28.70;59.80;;;;;;4974705;28;20204;-67
2022/07/17 08:47:12;;;;;;;5.03;4.43;;;28.80;58.40;;;;;;4987434;28;20212;-68
2022/07/17 08:49:43;;;;;;;4.90;4.50;;;28.70;59.00;;;;;;4978392;28;20200;-73
2022/07/17 08:52:10;;;;;;;3.60;3.40;;;28.70;59.00;;;;;;4973610;28;20525;-67
2022/07/17 08:54:36;;;;;;;6.20;4.30;;;28.90;58.40;;;;;;4968096;28;20884;-68
2022/07/17 08:57:02;;;;;;;4.33;4.03;;;29.00;58.30;;;;;;4980557;28;20494;-68
2022/07/17 08:59:28;;;;;;;3.97;3.67;;;29.20;57.80;;;;;;4972888;28;20915;-68
2022/07/17 09:01:53;;;;;;;5.60;3.67;;;29.40;57.50;;;;;;4974528;28;20475;-65
2022/07/17 09:04:19;;;;;;;4.27;3.97;;;29.60;57.20;;;;;;4976486;28;20196;-65
2022/07/17 09:06:44;;;;;;;3.80;3.60;;;29.90;55.90;;;;;;4971429;28;20556;-69
2022/07/17 09:09:12;;;;;;;4.97;4.33;;;29.90;55.70;;;;;;4971919;28;20666;-68
2022/07/17 09:11:43;;;;;;;3.80;3.60;;;29.70;55.10;;;;;;4975886;28;20205;-67
2022/07/17 09:14:09;;;;;;;3.80;3.60;;;29.70;55.50;;;;;;4986460;28;20533;-66
2022/07/17 09:16:36;;;;;;;3.33;3.13;;;29.80;55.20;;;;;;4978197;28;20542;-67
2022/07/17 09:19:01;;;;;;;6.90;3.83;;;29.90;55.30;;;;;;4983578;28;20253;-68
2022/07/17 09:21:28;;;;;;;3.70;3.50;;;29.80;54.20;;;;;;4976932;28;20463;-67
2022/07/17 09:24:06;;;;;;;4.10;3.90;;;29.90;54.40;;;;;;4970023;28;20188;-67
2022/07/17 09:26:33;;;;;;;4.53;3.67;;;29.90;52.80;;;;;;4976049;28;20470;-67
2022/07/17 09:29:02;;;;;;;3.77;3.57;;;29.70;53.00;;;;;;4978017;28;20439;-69
2022/07/17 09:31:29;;;;;;;4.37;3.97;;;29.50;52.10;;;;;;4972461;28;20470;-67
2022/07/17 09:33:56;;;;;;;4.00;3.37;;;29.50;53.20;;;;;;4970926;28;20439;-67
2022/07/17 09:36:22;;;;;;;3.60;3.40;;;29.80;52.50;;;;;;4969757;28;20817;-66
2022/07/17 09:38:52;;;;;;;4.53;4.03;;;29.70;52.20;;;;;;4969580;28;20475;-66
2022/07/17 09:41:20;;;;;;;3.70;3.50;;;29.90;51.50;;;;;;4962855;28;20467;-69
2022/07/17 09:43:47;;;;;;;3.70;3.50;;;30.10;51.90;;;;;;4969316;28;20448;-66
2022/07/17 09:46:16;;;;;;;14.77;5.20;;;30.40;51.30;;;;;;4979303;28;20471;-66
2022/07/17 09:48:47;;;;;;;8.93;4.10;;;30.50;51.60;;;;;;4972746;28;21139;-66
2022/07/17 09:51:17;;;;;;;4.00;3.57;;;30.80;51.40;;;;;;4983500;28;20488;-66
2022/07/17 09:53:46;;;;;;;3.53;3.20;;;31.50;50.00;;;;;;4985835;28;20526;-66
2022/07/17 09:56:14;;;;;;;3.23;2.93;;;31.90;48.60;;;;;;4981695;28;20470;-66
2022/07/17 09:58:50;;;;;;;2.60;2.50;;;31.80;48.10;;;;;;4973130;28;20431;-66
2022/07/17 10:01:19;;;;;;;3.07;2.87;;;32.50;47.20;;;;;;4965076;28;20454;-66
2022/07/17 10:03:45;;;;;;;5.03;3.30;;;32.60;46.00;;;;;;4984436;28;20434;-66
2022/07/17 10:06:11;;;;;;;3.13;2.93;;;32.80;46.10;;;;;;4982850;28;20489;-66
2022/07/17 10:08:38;;;;;;;3.27;3.07;;;32.70;45.40;;;;;;4981223;28;20983;-66
2022/07/17 10:11:08;;;;;;;3.13;2.93;;;33.10;45.40;;;;;;4982429;28;20534;-66
2022/07/17 10:13:37;;;;;;;3.87;3.57;;;33.50;44.80;;;;;;4985191;28;20434;-66
2022/07/17 10:16:03;;;;;;;3.23;2.87;;;33.90;44.70;;;;;;4982943;28;20435;-66
2022/07/17 10:18:43;;;;;;;3.00;2.80;;;34.40;43.50;;;;;;4974854;28;20606;-66
2022/07/17 10:21:18;;;;;;;3.30;3.10;;;34.40;43.60;;;;;;4983819;28;20203;-66
2022/07/17 10:23:53;;;;;;;3.07;2.87;;;35.40;43.50;;;;;;4984207;28;20434;-66
2022/07/17 10:26:46;;;;;;;3.90;3.70;;;35.90;42.50;;;;;;4978750;28;20465;-66
2022/07/17 10:29:31;;;;;;;3.77;3.53;;;37.00;39.70;;;;;;4983079;28;20948;-66
2022/07/17 10:31:58;;;;;;;4.00;3.70;;;36.90;39.10;;;;;;4985862;28;20454;-66
2022/07/17 10:34:46;;;;;;;2.73;2.63;;;37.10;39.20;;;;;;4985794;28;20415;-67
2022/07/17 10:37:45;;;;;;;2.90;2.70;;;37.80;37.70;;;;;;4978803;28;20434;-66
2022/07/17 10:40:11;;;;;;;3.47;3.27;;;37.40;37.30;;;;;;4944398;28;20491;-66
2022/07/17 10:42:58;;;;;;;2.97;2.77;;;37.90;37.20;;;;;;4984313;28;20462;-67
2022/07/17 10:45:33;;;;;;;3.10;2.90;;;38.50;35.50;;;;;;4981416;28;20522;-70
2022/07/17 10:48:00;;;;;;;2.80;2.60;;;39.30;35.20;;;;;;4964932;28;20504;-68
2022/07/17 10:50:38;;;;;;;3.00;2.80;;;39.30;35.00;;;;;;4983354;28;20434;-68
2022/07/17 10:53:28;;;;;;;3.53;3.33;;;40.40;33.60;;;;;;4979188;28;20470;-69
2022/07/17 10:56:07;;;;;;;3.30;2.70;;;37.90;34.50;;;;;;4980069;28;20438;-69
2022/07/17 10:58:37;;;;;;;2.73;2.63;;;39.00;34.60;;;;;;4983070;28;20919;-68
2022/07/17 11:01:12;;;;;;;3.03;2.50;;;39.30;34.10;;;;;;4964896;28;20543;-67
2022/07/17 11:03:44;;;;;;;2.43;2.27;;;39.00;33.50;;;;;;4980115;28;20445;-65
2022/07/17 11:06:17;;;;;;;3.53;3.23;;;38.10;33.50;;;;;;4980282;28;21035;-66
2022/07/17 11:08:51;;;;;;;3.07;2.87;;;37.60;34.90;;;;;;4983172;28;20434;-66
2022/07/17 11:11:20;;;;;;;2.80;2.60;;;39.10;34.10;;;;;;4975757;28;20979;-66
2022/07/17 11:13:46;;;;;;;2.43;2.23;;;39.90;33.00;;;;;;4977884;28;20458;-66
2022/07/17 11:16:12;;;;;;;3.13;2.93;;;39.60;32.60;;;;;;4980212;28;20490;-67
2022/07/17 11:18:47;;;;;;;2.37;2.17;;;40.60;31.90;;;;;;4984998;28;20546;-66
2022/07/17 11:21:13;;;;;;;4.10;2.77;;;41.80;33.20;;;;;;4975167;28;20468;-66
2022/07/17 11:23:53;;;;;;;3.23;3.00;;;42.60;33.50;;;;;;4983734;28;20526;-66
2022/07/17 11:26:22;;;;;;;3.27;2.97;;;41.80;33.80;;;;;;4960374;28;20772;-66
2022/07/17 11:28:49;;;;;;;4.53;2.83;;;42.90;33.30;;;;;;4976653;28;20437;-66
2022/07/17 11:31:27;;;;;;;4.20;3.90;;;42.90;33.40;;;;;;4978618;28;20465;-66
2022/07/17 11:34:05;;;;;;;3.77;3.43;;;42.50;33.40;;;;;;4977911;28;20465;-66
2022/07/17 11:36:36;;;;;;;2.93;2.83;;;42.80;33.10;;;;;;4978378;28;20442;-66
2022/07/17 11:39:06;;;;;;;2.83;2.63;;;43.10;33.20;;;;;;4980253;28;20896;-66
2022/07/17 11:41:40;;;;;;;3.03;2.93;;;44.40;34.20;;;;;;4978762;28;20537;-66
2022/07/17 11:44:12;;;;;;;3.53;3.23;;;44.30;24.10;;;;;;4984577;28;20438;-66
2022/07/17 11:46:41;;;;;;;2.80;2.60;;;44.30;23.80;;;;;;4986253;28;20471;-66
2022/07/17 11:49:07;;;;;;;4.40;2.97;;;45.60;23.30;;;;;;4984728;28;20441;-66
2022/07/17 11:51:43;;;;;;;3.23;3.00;;;46.20;22.70;;;;;;4977219;28;20482;-66
2022/07/17 11:54:18;;;;;;;3.50;3.20;;;45.40;22.20;;;;;;4986447;28;20426;-66
2022/07/17 11:56:53;;;;;;;2.57;2.37;;;45.40;22.30;;;;;;4981032;28;20520;-66
2022/07/17 11:59:27;;;;;;;2.83;2.70;;;45.50;22.50;;;;;;4985279;28;20431;-66
2022/07/17 12:01:54;;;;;;;3.93;3.63;;;45.50;21.60;;;;;;4983975;28;20482;-67
2022/07/17 12:04:20;;;;;;;3.60;3.40;;;44.50;22.40;;;;;;4987702;28;20474;-66
2022/07/17 12:06:57;;;;;;;2.73;2.63;;;45.30;22.60;;;;;;4986679;28;20470;-67
2022/07/17 12:09:33;;;;;;;2.67;2.53;;;45.00;21.90;;;;;;4982466;28;20498;-66
2022/07/17 12:12:00;;;;;;;2.97;2.77;;;45.50;22.90;;;;;;4984497;28;20451;-67
2022/07/17 12:14:25;;;;;;;3.23;3.03;;;45.70;22.20;;;;;;4987135;28;20777;-67
2022/07/17 12:16:51;;;;;;;3.27;3.10;;;46.30;22.10;;;;;;4981516;28;20513;-67
2022/07/17 12:19:22;;;;;;;3.30;3.10;;;47.00;21.80;;;;;;4982512;28;20271;-67
2022/07/17 12:22:03;;;;;;;3.40;3.20;;;47.70;21.10;;;;;;4983086;28;20287;-67
2022/07/17 12:24:38;;;;;;;3.40;3.30;;;47.20;21.60;;;;;;4958422;28;20764;-66
2022/07/17 12:27:09;;;;;;;3.10;3.00;;;45.40;22.10;;;;;;4983366;28;20524;-67
2022/07/17 12:29:35;;;;;;;2.67;2.57;;;45.10;21.50;;;;;;4977865;28;20426;-67
2022/07/17 12:32:07;;;;;;;3.20;3.00;;;46.70;20.90;;;;;;4984379;28;20478;-67
2022/07/17 12:34:34;;;;;;;3.20;2.70;;;45.10;21.10;;;;;;4964991;28;20432;-65
2022/07/17 12:37:00;;;;;;;3.20;3.00;;;45.40;20.90;;;;;;4970857;28;20482;-66
2022/07/17 12:39:25;;;;;;;2.90;2.70;;;45.70;20.60;;;;;;4972938;28;20897;-67
2022/07/17 12:41:51;;;;;;;2.77;2.67;;;46.70;20.10;;;;;;4976082;28;20577;-67
2022/07/17 12:44:16;;;;;;;3.20;3.00;;;46.80;19.70;;;;;;4978886;28;20199;-66
2022/07/17 12:46:42;;;;;;;3.23;3.13;;;47.10;19.20;;;;;;4986507;28;20202;-66
2022/07/17 12:49:07;;;;;;;3.27;3.07;;;47.40;19.60;;;;;;4982034;28;20184;-66